createdAt,value
2018-08-17T00:00:47.905Z,4.35
2018-08-17T00:03:16.863Z,3.77
2018-08-17T00:05:45.783Z,4.35
2018-08-17T00:08:14.789Z,3.80
2018-08-17T00:10:43.981Z,4.00
2018-08-17T00:13:12.885Z,4.50
2018-08-17T00:15:41.822Z,4.47
2018-08-17T00:18:10.745Z,3.80
2018-08-17T00:20:39.674Z,3.50
2018-08-17T00:23:08.574Z,4.10
2018-08-17T00:25:37.480Z,4.28
2018-08-17T00:28:06.597Z,3.42
2018-08-17T00:30:35.505Z,4.05
2018-08-17T00:33:04.622Z,4.58
2018-08-17T00:35:33.502Z,3.55
2018-08-17T00:38:02.386Z,4.20
2018-08-17T00:40:31.265Z,4.42
2018-08-17T00:43:00.157Z,4.20
2018-08-17T00:45:29.069Z,3.95
2018-08-17T00:47:57.998Z,4.05
2018-08-17T00:50:26.902Z,4.00
2018-08-17T00:52:55.808Z,4.10
2018-08-17T00:55:24.775Z,4.00
2018-08-17T00:57:53.586Z,4.97
2018-08-17T01:00:22.489Z,5.05
2018-08-17T01:02:51.382Z,4.75
2018-08-17T01:05:20.277Z,5.10
2018-08-17T01:07:49.146Z,4.10
2018-08-17T01:10:18.095Z,3.47
2018-08-17T01:12:46.998Z,3.92
2018-08-17T01:15:15.929Z,4.05
2018-08-17T01:17:44.902Z,4.65
2018-08-17T01:20:16.731Z,3.77
2018-08-17T01:22:45.630Z,4.30
2018-08-17T01:25:14.557Z,4.25
2018-08-17T01:27:43.446Z,4.28
2018-08-17T01:30:12.355Z,4.25
2018-08-17T01:32:41.239Z,4.30
2018-08-17T01:35:10.141Z,4.20
2018-08-17T01:37:39.010Z,4.03
2018-08-17T01:40:07.947Z,4.62
2018-08-17T01:42:36.826Z,4.28
2018-08-17T01:45:05.713Z,5.03
2018-08-17T01:47:34.580Z,4.28
2018-08-17T01:50:03.542Z,4.42
2018-08-17T01:52:32.432Z,4.28
2018-08-17T01:55:01.333Z,4.40
2018-08-17T01:57:30.222Z,4.78
2018-08-17T01:59:59.110Z,4.25
2018-08-17T02:02:27.985Z,4.12
2018-08-17T02:04:56.884Z,4.55
2018-08-17T02:07:25.761Z,4.67
2018-08-17T02:09:54.667Z,3.80
2018-08-17T02:12:23.605Z,5.60
2018-08-17T02:14:52.528Z,4.92
2018-08-17T02:17:21.649Z,4.33
2018-08-17T02:19:50.610Z,4.60
2018-08-17T02:22:19.537Z,4.50
2018-08-17T02:24:48.457Z,6.28
2018-08-17T02:27:17.406Z,4.60
2018-08-17T02:29:46.470Z,4.85
2018-08-17T02:32:15.363Z,5.20
2018-08-17T02:34:44.307Z,4.58
2018-08-17T02:37:13.218Z,5.05
2018-08-17T02:39:42.210Z,5.50
2018-08-17T02:42:11.143Z,4.22
2018-08-17T02:44:40.243Z,4.30
2018-08-17T02:47:09.186Z,5.00
2018-08-17T02:49:38.073Z,4.97
2018-08-17T02:52:06.998Z,6.05
2018-08-17T02:54:35.903Z,4.70
2018-08-17T02:57:04.791Z,6.15
2018-08-17T02:59:33.741Z,4.35
2018-08-17T03:02:02.566Z,5.08
2018-08-17T03:04:31.516Z,4.45
2018-08-17T03:07:00.488Z,4.70
2018-08-17T03:09:29.372Z,4.60
2018-08-17T03:11:58.234Z,4.30
2018-08-17T03:14:27.186Z,6.45
2018-08-17T03:16:56.077Z,4.72
2018-08-17T03:19:24.942Z,5.40
2018-08-17T03:21:53.829Z,4.78
2018-08-17T03:24:22.702Z,7.92
2018-08-17T03:26:51.615Z,5.95
2018-08-17T03:29:20.499Z,5.70
2018-08-17T03:31:49.386Z,5.60
2018-08-17T03:34:18.337Z,4.50
2018-08-17T03:36:47.279Z,5.05
2018-08-17T03:39:16.161Z,4.75
2018-08-17T03:41:45.062Z,4.78
2018-08-17T03:44:13.973Z,6.00
2018-08-17T03:46:42.894Z,4.65
2018-08-17T03:49:11.789Z,5.70
2018-08-17T03:51:40.662Z,4.60
2018-08-17T03:54:09.554Z,6.58
2018-08-17T03:56:39.365Z,4.53
2018-08-17T03:59:08.302Z,4.33
2018-08-17T04:01:37.206Z,4.80
2018-08-17T04:04:06.450Z,4.67
2018-08-17T04:06:35.390Z,4.62
2018-08-17T04:09:06.006Z,5.22
2018-08-17T04:11:35.173Z,4.60
2018-08-17T04:14:04.079Z,4.42
2018-08-17T04:16:32.980Z,4.85
2018-08-17T04:19:01.869Z,4.80
2018-08-17T04:24:02.032Z,4.72
2018-08-17T04:26:30.930Z,4.62
2018-08-17T04:28:59.807Z,5.15
2018-08-17T04:31:28.706Z,5.12
2018-08-17T04:33:57.594Z,4.65
2018-08-17T04:36:26.574Z,5.35
2018-08-17T04:38:55.473Z,5.10
2018-08-17T04:41:24.393Z,5.08
2018-08-17T04:43:53.267Z,5.20
2018-08-17T04:46:22.161Z,4.80
2018-08-17T04:48:51.038Z,5.60
2018-08-17T04:51:19.930Z,4.95
2018-08-17T04:53:48.806Z,4.83
2018-08-17T04:56:17.740Z,8.08
2018-08-17T04:58:46.673Z,5.90
2018-08-17T05:01:15.603Z,5.28
2018-08-17T05:03:44.554Z,4.72
2018-08-17T05:06:13.531Z,6.83
2018-08-17T05:08:43.373Z,7.12
2018-08-17T05:11:12.257Z,4.58
2018-08-17T05:13:41.173Z,8.35
2018-08-17T05:16:10.244Z,6.60
2018-08-17T05:18:39.194Z,8.78
2018-08-17T05:21:08.082Z,12.23
2018-08-17T05:23:36.958Z,13.70
2018-08-17T05:26:06.898Z,14.75
2018-08-17T05:28:35.790Z,13.13
2018-08-17T05:31:04.733Z,15.13
2018-08-17T05:33:33.642Z,21.50
2018-08-17T05:36:02.592Z,58.23
2018-08-17T05:38:31.454Z,31.85
2018-08-17T05:41:00.360Z,17.60
2018-08-17T05:43:29.244Z,36.38
2018-08-17T05:45:58.159Z,12.30
2018-08-17T05:48:27.042Z,10.88
2018-08-17T05:50:55.925Z,23.02
2018-08-17T05:53:24.834Z,19.80
2018-08-17T05:55:54.581Z,19.17
2018-08-17T05:58:23.452Z,31.52
2018-08-17T06:00:52.390Z,44.65
2018-08-17T06:03:21.295Z,47.85
2018-08-17T06:05:50.246Z,24.43
2018-08-17T06:08:19.153Z,10.03
2018-08-17T06:10:48.127Z,15.75
2018-08-17T06:13:17.039Z,31.30
2018-08-17T06:15:45.958Z,28.65
2018-08-17T06:18:14.903Z,14.45
2018-08-17T06:20:43.847Z,8.00
2018-08-17T06:23:12.731Z,5.08
2018-08-17T06:25:41.669Z,16.32
2018-08-17T06:28:10.557Z,6.85
2018-08-17T06:30:39.603Z,12.25
2018-08-17T06:33:08.574Z,7.80
2018-08-17T06:35:37.590Z,5.75
2018-08-17T06:38:06.601Z,10.82
2018-08-17T06:40:35.518Z,5.87
2018-08-17T06:43:04.414Z,18.75
2018-08-17T06:45:33.341Z,7.90
2018-08-17T06:48:02.246Z,9.83
2018-08-17T06:50:31.175Z,12.63
2018-08-17T06:53:00.027Z,11.33
2018-08-17T06:55:29.056Z,7.28
2018-08-17T06:57:57.978Z,4.12
2018-08-17T07:00:26.878Z,6.25
2018-08-17T07:02:55.770Z,9.18
2018-08-17T07:05:24.733Z,4.95
2018-08-17T07:07:53.635Z,2.80
2018-08-17T07:10:22.554Z,6.20
2018-08-17T07:12:51.537Z,10.50
2018-08-17T07:15:20.434Z,10.53
2018-08-17T07:17:49.381Z,3.30
2018-08-17T07:20:18.359Z,6.70
2018-08-17T07:22:47.425Z,2.83
2018-08-17T07:25:16.590Z,2.60
2018-08-17T07:27:45.664Z,2.70
2018-08-17T07:30:14.610Z,5.80
2018-08-17T07:32:43.569Z,2.67
2018-08-17T07:35:12.491Z,7.00
2018-08-17T07:37:41.522Z,4.53
2018-08-17T07:40:10.415Z,2.20
2018-08-17T07:42:39.351Z,4.00
2018-08-17T07:45:08.246Z,2.83
2018-08-17T07:47:37.166Z,17.90
2018-08-17T07:50:06.054Z,7.63
2018-08-17T07:52:35.008Z,14.00
2018-08-17T07:55:04.103Z,8.60
2018-08-17T07:57:32.994Z,8.90
2018-08-17T08:00:01.912Z,13.53
2018-08-17T08:02:30.819Z,11.90
2018-08-17T08:05:02.698Z,3.30
2018-08-17T08:07:31.728Z,10.73
2018-08-17T08:10:00.611Z,2.53
2018-08-17T08:12:29.562Z,4.33
2018-08-17T08:14:58.445Z,8.43
2018-08-17T08:17:27.382Z,2.23
2018-08-17T08:20:07.442Z,8.10
2018-08-17T08:22:36.330Z,8.57
2018-08-17T08:25:05.600Z,3.10
2018-08-17T08:27:34.535Z,5.43
2018-08-17T08:30:03.466Z,2.40
2018-08-17T08:32:32.437Z,4.80
2018-08-17T08:35:01.229Z,3.40
2018-08-17T08:37:30.110Z,3.23
2018-08-17T08:39:59.001Z,3.87
2018-08-17T08:42:27.906Z,3.00
2018-08-17T08:44:56.791Z,4.70
2018-08-17T08:47:25.684Z,5.33
2018-08-17T08:49:54.574Z,4.40
2018-08-17T08:52:23.478Z,6.50
2018-08-17T08:54:52.353Z,6.73
2018-08-17T08:57:21.242Z,3.50
2018-08-17T08:59:50.137Z,2.73
2018-08-17T09:02:19.038Z,15.47
2018-08-17T09:04:47.987Z,4.03
2018-08-17T09:07:16.930Z,3.83
2018-08-17T09:09:45.864Z,2.47
2018-08-17T09:12:15.705Z,2.47
2018-08-17T09:14:44.604Z,4.70
2018-08-17T09:17:13.565Z,2.70
2018-08-17T09:19:42.570Z,6.60
2018-08-17T09:22:11.483Z,4.80
2018-08-17T09:24:40.411Z,2.13
2018-08-17T09:27:09.292Z,2.07
2018-08-17T09:29:38.165Z,23.20
2018-08-17T09:32:07.150Z,9.67
2018-08-17T09:34:36.030Z,2.17
2018-08-17T09:37:05.098Z,2.70
2018-08-17T09:39:33.994Z,3.60
2018-08-17T09:42:02.970Z,2.93
2018-08-17T09:44:31.802Z,17.47
2018-08-17T09:47:00.719Z,2.37
2018-08-17T09:49:29.597Z,5.47
2018-08-17T09:51:58.487Z,7.40
2018-08-17T09:54:27.361Z,5.30
2018-08-17T09:56:56.254Z,2.60
2018-08-17T09:59:25.125Z,5.13
2018-08-17T10:01:59.298Z,3.93
2018-08-17T10:04:33.397Z,8.97
2018-08-17T10:07:07.519Z,2.50
2018-08-17T10:09:41.640Z,2.30
2018-08-17T10:12:10.537Z,2.60
2018-08-17T10:14:39.397Z,2.63
2018-08-17T10:17:08.422Z,24.60
2018-08-17T10:19:37.309Z,3.97
2018-08-17T10:22:06.515Z,2.27
2018-08-17T10:24:35.147Z,2.70
2018-08-17T10:27:04.106Z,2.87
2018-08-17T10:29:33.002Z,2.40
2018-08-17T10:32:01.934Z,2.93
2018-08-17T10:34:30.810Z,2.03
2018-08-17T10:36:59.718Z,2.97
2018-08-17T10:39:29.303Z,4.60
2018-08-17T10:41:58.191Z,2.70
2018-08-17T10:44:27.079Z,3.00
2018-08-17T10:46:55.979Z,2.70
2018-08-17T10:49:24.879Z,2.17
2018-08-17T10:51:56.066Z,3.67
2018-08-17T10:54:25.333Z,2.50
2018-08-17T10:56:54.502Z,4.83
2018-08-17T10:59:23.391Z,2.27
2018-08-17T11:01:52.282Z,2.73
2018-08-17T11:04:21.169Z,2.63
2018-08-17T11:06:50.057Z,2.43
2018-08-17T11:09:18.950Z,2.17
2018-08-17T11:11:47.846Z,2.10
2018-08-17T11:14:16.734Z,2.33
2018-08-17T11:16:45.621Z,3.63
2018-08-17T11:19:14.527Z,4.43
2018-08-17T11:21:43.411Z,7.23
2018-08-17T11:24:12.310Z,2.40
2018-08-17T11:26:41.193Z,2.53
2018-08-17T11:29:10.089Z,3.53
2018-08-17T11:31:38.974Z,3.03
2018-08-17T11:34:07.896Z,2.60
2018-08-17T11:36:36.794Z,2.73
2018-08-17T11:39:06.549Z,2.53
2018-08-17T11:41:35.495Z,2.20
2018-08-17T11:44:07.602Z,2.90
2018-08-17T11:46:36.471Z,2.50
2018-08-17T11:49:05.371Z,2.70
2018-08-17T11:51:35.111Z,4.40
2018-08-17T11:54:04.140Z,2.37
2018-08-17T11:56:32.958Z,3.07
2018-08-17T11:59:01.838Z,8.87
2018-08-17T12:01:30.745Z,20.63
2018-08-17T12:03:59.627Z,4.30
2018-08-17T12:06:28.498Z,6.40
2018-08-17T12:08:57.396Z,2.40
2018-08-17T12:11:26.253Z,2.70
2018-08-17T12:13:55.424Z,2.23
2018-08-17T12:16:24.286Z,2.10
2018-08-17T12:18:53.284Z,2.13
2018-08-17T12:21:22.060Z,1.80
2018-08-17T12:23:50.934Z,5.77
2018-08-17T12:26:19.806Z,1.83
2018-08-17T12:28:48.711Z,3.10
2018-08-17T12:31:17.621Z,2.93
2018-08-17T12:33:46.595Z,6.00
2018-08-17T12:36:15.570Z,4.13
2018-08-17T12:38:44.462Z,2.27
2018-08-17T12:41:13.330Z,2.23
2018-08-17T12:43:42.303Z,23.03
2018-08-17T12:46:11.145Z,20.23
2018-08-17T12:48:40.033Z,5.40
2018-08-17T12:51:08.901Z,6.10
2018-08-17T12:53:37.778Z,1.83
2018-08-17T12:56:06.672Z,3.20
2018-08-17T12:58:35.582Z,2.23
2018-08-17T13:01:04.509Z,1.80
2018-08-17T13:03:33.387Z,3.27
2018-08-17T13:06:02.285Z,1.80
2018-08-17T13:08:31.149Z,3.63
2018-08-17T13:11:00.228Z,1.90
2018-08-17T13:13:29.108Z,3.80
2018-08-17T13:16:03.313Z,3.37
2018-08-17T13:18:33.991Z,1.77
2018-08-17T13:21:03.151Z,2.13
2018-08-17T13:23:32.031Z,2.60
2018-08-17T13:26:00.942Z,1.70
2018-08-17T13:28:30.019Z,3.13
2018-08-17T13:30:58.918Z,36.00
2018-08-17T13:33:27.911Z,33.90
2018-08-17T13:35:56.968Z,2.00
2018-08-17T13:38:25.798Z,1.70
2018-08-17T13:40:54.674Z,1.77
2018-08-17T13:43:23.565Z,1.70
2018-08-17T13:45:52.458Z,1.90
2018-08-17T13:48:21.345Z,2.07
2018-08-17T13:50:50.246Z,3.50
2018-08-17T13:53:19.152Z,2.03
2018-08-17T13:55:48.022Z,1.83
2018-08-17T13:58:16.905Z,1.80
2018-08-17T14:00:45.829Z,5.63
2018-08-17T14:03:14.746Z,2.10
2018-08-17T14:05:43.601Z,2.53
2018-08-17T14:08:12.614Z,2.63
2018-08-17T14:10:41.461Z,2.33
2018-08-17T14:13:10.378Z,2.27
2018-08-17T14:15:39.310Z,2.20
2018-08-17T14:18:08.154Z,2.30
2018-08-17T14:20:37.038Z,3.10
2018-08-17T14:23:05.930Z,2.67
2018-08-17T14:25:34.973Z,3.17
2018-08-17T14:28:03.978Z,2.60
2018-08-17T14:30:32.886Z,5.00
2018-08-17T14:33:01.755Z,2.17
2018-08-17T14:35:30.618Z,1.80
2018-08-17T14:37:59.485Z,1.73
2018-08-17T14:40:28.439Z,1.87
2018-08-17T14:42:57.273Z,3.13
2018-08-17T14:45:26.173Z,3.00
2018-08-17T14:47:55.046Z,2.10
2018-08-17T14:50:23.949Z,9.60
2018-08-17T14:52:52.806Z,6.73
2018-08-17T14:55:21.729Z,1.63
2018-08-17T14:57:50.664Z,2.23
2018-08-17T15:00:19.593Z,1.70
2018-08-17T15:02:48.458Z,2.97
2018-08-17T15:05:17.363Z,1.47
2018-08-17T15:07:46.275Z,12.00
2018-08-17T15:10:15.192Z,1.53
2018-08-17T15:12:44.310Z,2.37
2018-08-17T15:15:13.487Z,1.73
2018-08-17T15:17:42.380Z,1.60
2018-08-17T15:20:12.446Z,1.80
2018-08-17T15:22:41.637Z,2.40
2018-08-17T15:25:10.525Z,2.20
2018-08-17T15:27:39.407Z,2.03
2018-08-17T15:30:09.793Z,1.87
2018-08-17T15:32:39.203Z,1.80
2018-08-17T15:35:08.334Z,2.00
2018-08-17T15:37:37.762Z,1.70
2018-08-17T15:40:08.794Z,1.63
2018-08-17T15:42:37.713Z,1.93
2018-08-17T15:45:07.520Z,2.40
2018-08-17T15:47:36.826Z,2.07
2018-08-17T15:50:22.126Z,2.20
2018-08-17T15:52:51.027Z,2.00
2018-08-17T15:55:19.942Z,2.00
2018-08-17T15:57:49.029Z,1.63
2018-08-17T16:00:19.447Z,2.10
2018-08-17T16:02:48.395Z,1.70
2018-08-17T16:05:17.342Z,3.07
2018-08-17T16:07:46.295Z,2.40
2018-08-17T16:10:16.054Z,4.80
2018-08-17T16:12:45.545Z,2.53
2018-08-17T16:15:14.552Z,2.83
2018-08-17T16:17:43.557Z,1.77
2018-08-17T16:20:13.510Z,1.83
2018-08-17T16:22:43.118Z,3.63
2018-08-17T16:25:12.940Z,2.10
2018-08-17T16:27:42.649Z,2.00
2018-08-17T16:30:13.410Z,2.30
2018-08-17T16:32:42.707Z,4.47
2018-08-17T16:35:12.788Z,2.13
2018-08-17T16:37:42.730Z,2.10
2018-08-17T16:40:11.647Z,2.17
2018-08-17T16:42:40.562Z,5.03
2018-08-17T16:45:09.896Z,3.50
2018-08-17T16:47:38.870Z,2.63
2018-08-17T16:50:08.770Z,2.00
2018-08-17T16:52:37.687Z,2.30
2018-08-17T16:55:06.581Z,2.03
2018-08-17T16:57:35.445Z,2.40
2018-08-17T17:00:05.598Z,2.33
2018-08-17T17:02:34.463Z,2.60
2018-08-17T17:05:03.426Z,3.37
2018-08-17T17:07:32.610Z,2.40
2018-08-17T17:10:01.470Z,2.87
2018-08-17T17:12:30.355Z,2.90
2018-08-17T17:15:21.662Z,3.40
2018-08-17T17:17:56.961Z,3.30
2018-08-17T17:20:27.933Z,4.73
2018-08-17T17:22:56.807Z,11.00
2018-08-17T17:25:25.721Z,7.17
2018-08-17T17:27:54.697Z,4.03
2018-08-17T17:30:23.537Z,3.67
2018-08-17T17:32:58.829Z,5.00
2018-08-17T17:35:27.686Z,5.27
2018-08-17T17:37:56.653Z,5.10
2018-08-17T17:40:25.554Z,3.40
2018-08-17T17:42:54.445Z,3.07
2018-08-17T17:45:23.426Z,2.80
2018-08-17T17:47:52.404Z,3.20
2018-08-17T17:50:21.329Z,3.30
2018-08-17T17:52:50.348Z,4.60
2018-08-17T17:55:19.319Z,5.40
2018-08-17T17:57:51.839Z,6.60
2018-08-17T18:00:20.869Z,7.27
2018-08-17T18:02:50.483Z,6.47
2018-08-17T18:05:19.806Z,7.13
2018-08-17T18:07:49.874Z,6.57
2018-08-17T18:10:22.441Z,4.67
2018-08-17T18:12:51.384Z,10.73
2018-08-17T18:15:20.288Z,4.47
2018-08-17T18:17:49.238Z,6.73
2018-08-17T18:21:42.649Z,3.70
2018-08-17T18:24:12.126Z,5.47
2018-08-17T18:26:47.057Z,3.70
2018-08-17T18:29:16.110Z,2.50
2018-08-17T18:31:45.161Z,1.90
2018-08-17T18:34:14.426Z,4.93
2018-08-17T18:36:43.320Z,4.70
2018-08-17T18:39:14.030Z,5.10
2018-08-17T18:41:43.072Z,2.97
2018-08-17T18:44:12.684Z,4.23
2018-08-17T18:46:41.641Z,2.40
2018-08-17T18:49:10.486Z,4.10
2018-08-17T18:51:39.420Z,2.40
2018-08-17T18:54:08.370Z,3.67
2018-08-17T18:56:37.262Z,4.43
2018-08-17T18:59:06.238Z,2.53
2018-08-17T19:01:35.198Z,2.93
2018-08-17T19:04:04.155Z,3.23
2018-08-17T19:06:33.088Z,2.83
2018-08-17T19:09:02.007Z,2.30
2018-08-17T19:11:30.995Z,2.30
2018-08-17T19:13:59.897Z,2.43
2018-08-17T19:16:28.784Z,6.53
2018-08-17T19:18:57.775Z,2.70
2018-08-17T19:21:26.653Z,2.40
2018-08-17T19:23:55.543Z,2.20
2018-08-17T19:26:24.446Z,2.43
2018-08-17T19:28:54.094Z,2.10
2018-08-17T19:31:22.975Z,4.07
2018-08-17T19:33:51.921Z,3.00
2018-08-17T19:36:20.847Z,3.30
2018-08-17T19:38:49.841Z,3.27
2018-08-17T19:41:18.776Z,3.57
2018-08-17T19:43:47.686Z,2.37
2018-08-17T19:46:16.729Z,3.00
2018-08-17T19:48:45.530Z,3.93
2018-08-17T19:51:18.630Z,3.40
2018-08-17T19:53:47.850Z,2.77
2018-08-17T19:56:17.151Z,1.90
2018-08-17T19:58:46.125Z,2.90
2018-08-17T20:01:15.030Z,7.47
2018-08-17T20:03:44.028Z,2.30
2018-08-17T20:06:13.013Z,2.90
2018-08-17T20:08:42.244Z,2.40
2018-08-17T20:11:11.125Z,3.73
2018-08-17T20:13:40.033Z,2.30
2018-08-17T20:16:16.506Z,2.50
2018-08-17T20:18:45.554Z,2.20
2018-08-17T20:21:14.697Z,4.90
2018-08-17T20:23:43.694Z,2.27
2018-08-17T20:26:12.875Z,2.37
2018-08-17T20:28:41.686Z,3.13
2018-08-17T20:31:10.571Z,2.00
2018-08-17T20:33:39.628Z,2.17
2018-08-17T20:36:09.099Z,2.40
2018-08-17T20:38:38.043Z,2.30
2018-08-17T20:41:07.063Z,4.93
2018-08-17T20:43:35.985Z,2.90
2018-08-17T20:46:04.950Z,3.30
2018-08-17T20:48:33.883Z,2.30
2018-08-17T20:51:06.454Z,2.73
2018-08-17T20:53:35.350Z,3.00
2018-08-17T20:56:04.385Z,2.50
2018-08-17T20:58:33.270Z,2.30
2018-08-17T21:01:02.173Z,2.57
2018-08-17T21:03:31.452Z,2.73
2018-08-17T21:06:00.450Z,2.80
2018-08-17T21:08:30.420Z,2.77
2018-08-17T21:10:59.406Z,3.63
2018-08-17T21:13:28.296Z,2.57
2018-08-17T21:15:57.194Z,2.30
2018-08-17T21:18:26.193Z,4.87
2018-08-17T21:20:55.115Z,4.10
2018-08-17T21:23:24.032Z,3.30
2018-08-17T21:25:52.923Z,3.10
2018-08-17T21:28:21.859Z,2.93
2018-08-17T21:30:50.779Z,3.20
2018-08-17T21:33:19.970Z,2.93
2018-08-17T21:35:48.914Z,3.00
2018-08-17T21:38:17.856Z,3.57
2018-08-17T21:40:46.814Z,2.93
2018-08-17T21:43:15.794Z,3.40
2018-08-17T21:45:46.034Z,3.43
2018-08-17T21:48:20.258Z,3.90
2018-08-17T21:50:49.287Z,4.40
2018-08-17T21:53:18.322Z,3.30
2018-08-17T21:55:47.262Z,3.80
2018-08-17T21:58:16.303Z,4.10
2018-08-17T22:00:45.277Z,3.60
2018-08-17T22:03:21.129Z,3.63
2018-08-17T22:05:50.033Z,4.10
2018-08-17T22:08:19.297Z,3.43
2018-08-17T22:10:48.241Z,3.60
2018-08-17T22:13:27.672Z,4.07
2018-08-17T22:15:56.572Z,4.13
2018-08-17T22:18:25.755Z,4.37
2018-08-17T22:25:44.286Z,4.30
2018-08-17T22:28:13.245Z,3.73
2018-08-17T22:30:42.302Z,3.73
2018-08-17T22:33:11.295Z,4.63
2018-08-17T22:35:40.240Z,4.13
2018-08-17T22:38:09.125Z,6.30
2018-08-17T22:40:38.267Z,3.80
2018-08-17T22:43:07.344Z,4.93
2018-08-17T22:45:36.236Z,4.07
2018-08-17T22:48:05.322Z,4.20
2018-08-17T22:50:34.157Z,3.90
2018-08-17T22:53:03.082Z,3.47
2018-08-17T22:55:31.965Z,4.30
2018-08-17T22:58:01.338Z,4.37
2018-08-17T23:00:31.277Z,4.27
2018-08-17T23:03:01.494Z,3.60
2018-08-17T23:05:33.908Z,6.90
2018-08-17T23:08:02.821Z,3.47
2018-08-17T23:10:31.743Z,3.83
2018-08-17T23:13:00.681Z,3.77
2018-08-17T23:15:29.614Z,4.30
2018-08-17T23:17:59.621Z,3.62
2018-08-17T23:20:33.530Z,5.03
2018-08-17T23:23:03.278Z,4.40
2018-08-17T23:25:32.391Z,4.20
2018-08-17T23:28:01.353Z,3.50
2018-08-17T23:30:30.283Z,3.47
2018-08-17T23:32:59.260Z,4.03
2018-08-17T23:35:28.142Z,4.13
2018-08-17T23:37:57.120Z,4.77
2018-08-17T23:40:26.043Z,4.40
2018-08-17T23:42:54.958Z,7.50
2018-08-17T23:45:23.830Z,4.13
2018-08-17T23:47:52.743Z,4.25
2018-08-17T23:50:21.619Z,5.07
2018-08-17T23:52:50.526Z,6.05
2018-08-17T23:55:19.449Z,4.20
2018-08-17T23:57:48.374Z,4.20
